createdAt,value
2018-12-11T00:00:12.736Z,28.07
2018-12-11T00:02:40.930Z,27.13
2018-12-11T00:05:08.542Z,26.00
2018-12-11T00:07:36.042Z,27.40
2018-12-11T00:10:04.399Z,27.90
2018-12-11T00:12:31.931Z,26.83
2018-12-11T00:14:59.500Z,30.73
2018-12-11T00:17:27.018Z,26.03
2018-12-11T00:19:54.520Z,26.90
2018-12-11T00:22:22.096Z,26.70
2018-12-11T00:24:49.637Z,19.80
2018-12-11T00:27:17.146Z,20.70
2018-12-11T00:29:44.656Z,27.33
2018-12-11T00:32:12.222Z,23.07
2018-12-11T00:34:40.663Z,24.00
2018-12-11T00:37:08.190Z,30.03
2018-12-11T00:39:35.724Z,23.73
2018-12-11T00:42:03.272Z,23.53
2018-12-11T00:44:30.815Z,29.77
2018-12-11T00:46:58.418Z,26.50
2018-12-11T00:49:25.934Z,18.63
2018-12-11T00:51:53.416Z,32.93
2018-12-11T00:54:21.024Z,18.70
2018-12-11T00:56:48.582Z,26.30
2018-12-11T00:59:16.056Z,23.87
2018-12-11T01:07:29.782Z,24.93
2018-12-11T01:09:57.301Z,22.83
2018-12-11T01:12:24.810Z,28.40
2018-12-11T01:14:52.319Z,29.07
2018-12-11T01:17:19.840Z,20.83
2018-12-11T01:19:47.348Z,22.40
2018-12-11T01:22:14.848Z,31.77
2018-12-11T01:24:42.353Z,24.90
2018-12-11T01:27:09.850Z,20.97
2018-12-11T01:29:37.359Z,28.90
2018-12-11T01:32:04.919Z,27.07
2018-12-11T01:34:32.438Z,22.53
2018-12-11T01:36:59.938Z,23.83
2018-12-11T01:39:27.440Z,21.43
2018-12-11T01:41:54.956Z,25.93
2018-12-11T01:44:22.456Z,20.80
2018-12-11T01:46:49.968Z,24.70
2018-12-11T01:49:18.033Z,30.17
2018-12-11T01:51:45.546Z,19.80
2018-12-11T01:54:13.042Z,21.20
2018-12-11T01:56:40.540Z,24.70
2018-12-11T01:59:08.032Z,24.00
2018-12-11T02:01:35.534Z,21.43
2018-12-11T02:04:03.051Z,26.83
2018-12-11T02:06:31.734Z,30.53
2018-12-11T02:08:59.234Z,24.03
2018-12-11T02:11:26.741Z,21.47
2018-12-11T02:13:54.249Z,21.17
2018-12-11T02:16:22.464Z,28.13
2018-12-11T02:18:49.971Z,26.07
2018-12-11T02:21:17.458Z,21.43
2018-12-11T02:23:45.022Z,20.90
2018-12-11T02:26:12.524Z,21.67
2018-12-11T02:28:40.043Z,21.90
2018-12-11T02:31:07.575Z,20.87
2018-12-11T02:33:35.101Z,28.23
2018-12-11T02:36:02.617Z,25.60
2018-12-11T02:38:33.661Z,24.67
2018-12-11T02:41:01.181Z,24.27
2018-12-11T02:43:28.705Z,24.57
2018-12-11T02:45:56.289Z,28.13
2018-12-11T02:48:23.898Z,20.87
2018-12-11T02:50:51.426Z,21.00
2018-12-11T02:53:18.975Z,22.33
2018-12-11T02:55:46.494Z,26.73
2018-12-11T02:58:14.104Z,19.33
2018-12-11T03:00:41.610Z,20.27
2018-12-11T03:03:09.137Z,20.37
2018-12-11T03:05:36.655Z,24.30
2018-12-11T03:08:04.192Z,19.10
2018-12-11T03:10:31.731Z,16.60
2018-12-11T03:12:59.256Z,27.80
2018-12-11T03:15:27.667Z,30.13
2018-12-11T03:17:55.191Z,21.60
2018-12-11T03:20:22.705Z,21.17
2018-12-11T03:22:50.246Z,21.10
2018-12-11T03:28:08.394Z,28.63
2018-12-11T03:30:35.917Z,23.63
2018-12-11T03:33:03.455Z,17.60
2018-12-11T03:35:31.003Z,17.20
2018-12-11T03:37:58.528Z,22.30
2018-12-11T03:40:26.065Z,27.73
2018-12-11T03:42:53.589Z,19.23
2018-12-11T03:45:21.118Z,22.33
2018-12-11T03:47:48.662Z,23.97
2018-12-11T03:50:16.270Z,16.23
2018-12-11T04:01:16.949Z,19.70
2018-12-11T04:03:44.594Z,23.13
2018-12-11T04:06:12.238Z,19.10
2018-12-11T04:08:39.752Z,18.57
2018-12-11T04:11:07.245Z,22.97
2018-12-11T04:13:34.877Z,21.60
2018-12-11T04:16:02.451Z,21.73
2018-12-11T04:18:29.970Z,24.87
2018-12-11T04:20:57.761Z,18.73
2018-12-11T04:23:25.243Z,30.07
2018-12-11T04:25:52.820Z,22.70
2018-12-11T04:28:20.363Z,19.60
2018-12-11T04:30:47.960Z,25.10
2018-12-11T04:33:15.504Z,24.40
2018-12-11T04:35:42.986Z,23.97
2018-12-11T04:38:10.516Z,23.13
2018-12-11T04:40:38.006Z,21.30
2018-12-11T04:43:05.504Z,21.53
2018-12-11T04:45:33.015Z,20.63
2018-12-11T04:48:00.526Z,17.93
2018-12-11T04:50:28.996Z,25.03
2018-12-11T04:52:56.506Z,14.60
2018-12-11T04:55:24.041Z,20.23
2018-12-11T04:57:51.959Z,25.80
2018-12-11T05:00:19.484Z,28.43
2018-12-11T05:02:47.058Z,20.97
2018-12-11T05:05:14.625Z,19.87
2018-12-11T05:07:42.138Z,22.10
2018-12-11T05:10:10.612Z,20.97
2018-12-11T05:12:38.180Z,23.03
2018-12-11T05:15:06.194Z,18.70
2018-12-11T05:17:33.710Z,17.10
2018-12-11T05:20:01.639Z,20.93
2018-12-11T05:22:29.184Z,19.67
2018-12-11T05:24:56.704Z,20.60
2018-12-11T05:27:24.304Z,21.20
2018-12-11T05:29:51.826Z,18.07
2018-12-11T05:32:19.436Z,19.30
2018-12-11T05:34:46.947Z,22.67
2018-12-11T05:37:14.715Z,23.13
2018-12-11T05:39:42.238Z,15.43
2018-12-11T05:42:09.815Z,19.13
2018-12-11T05:44:37.336Z,19.77
2018-12-11T05:47:04.974Z,19.93
2018-12-11T05:49:33.252Z,22.60
2018-12-11T05:52:00.780Z,25.57
2018-12-11T05:54:28.718Z,17.87
2018-12-11T05:56:56.370Z,17.90
2018-12-11T05:59:23.882Z,18.37
2018-12-11T06:01:51.476Z,18.67
2018-12-11T06:04:19.000Z,15.73
2018-12-11T06:06:46.543Z,19.70
2018-12-11T06:09:14.187Z,15.77
2018-12-11T06:11:41.692Z,19.07
2018-12-11T06:14:10.559Z,18.33
2018-12-11T06:16:38.204Z,15.70
2018-12-11T06:19:05.739Z,16.17
2018-12-11T06:21:33.269Z,18.17
2018-12-11T06:24:01.635Z,16.73
2018-12-11T06:26:29.133Z,11.10
2018-12-11T06:28:56.638Z,12.30
2018-12-11T06:31:24.167Z,14.47
2018-12-11T06:33:51.671Z,18.40
2018-12-11T06:36:19.163Z,16.77
2018-12-11T06:38:46.669Z,18.67
2018-12-11T06:41:14.243Z,17.43
2018-12-11T06:43:41.758Z,20.07
2018-12-11T06:46:09.305Z,18.43
2018-12-11T06:48:36.875Z,18.50
2018-12-11T06:51:04.530Z,14.53
2018-12-11T06:53:32.064Z,11.90
2018-12-11T06:55:59.584Z,11.47
2018-12-11T06:58:27.085Z,7.23
2018-12-11T07:00:54.593Z,14.93
2018-12-11T07:03:22.167Z,10.07
2018-12-11T07:05:49.792Z,15.80
2018-12-11T07:08:17.419Z,18.17
2018-12-11T07:10:44.954Z,14.97
2018-12-11T07:13:12.473Z,10.15
2018-12-11T07:15:40.394Z,10.73
2018-12-11T07:18:07.917Z,13.43
2018-12-11T07:20:35.574Z,13.07
2018-12-11T07:23:03.086Z,14.50
2018-12-11T07:25:30.582Z,12.27
2018-12-11T07:27:58.072Z,15.70
2018-12-11T07:30:25.579Z,11.50
2018-12-11T07:32:53.109Z,12.80
2018-12-11T07:35:20.643Z,10.77
2018-12-11T07:37:48.136Z,12.70
2018-12-11T07:40:15.655Z,12.63
2018-12-11T07:42:43.180Z,13.17
2018-12-11T07:45:10.703Z,16.97
2018-12-11T07:47:38.325Z,12.03
2018-12-11T07:50:05.972Z,13.20
2018-12-11T07:52:33.520Z,15.70
2018-12-11T07:55:01.106Z,17.67
2018-12-11T07:57:28.619Z,10.57
2018-12-11T07:59:56.113Z,10.77
2018-12-11T08:02:23.725Z,10.67
2018-12-11T08:04:51.863Z,11.20
2018-12-11T08:07:19.386Z,7.73
2018-12-11T08:09:46.950Z,11.83
2018-12-11T08:12:14.508Z,11.57
2018-12-11T08:14:42.024Z,13.03
2018-12-11T08:17:10.062Z,10.00
2018-12-11T08:19:37.589Z,14.53
2018-12-11T08:22:05.099Z,10.00
2018-12-11T08:24:32.630Z,8.33
2018-12-11T08:27:00.247Z,12.13
2018-12-11T08:29:27.770Z,8.80
2018-12-11T08:34:48.349Z,5.93
2018-12-11T08:37:15.883Z,6.40
2018-12-11T08:39:43.400Z,14.90
2018-12-11T08:42:10.939Z,9.97
2018-12-11T08:44:38.523Z,6.73
2018-12-11T08:47:06.200Z,6.47
2018-12-11T08:49:33.743Z,6.13
2018-12-11T08:52:01.340Z,7.60
2018-12-11T08:54:28.864Z,6.40
2018-12-11T08:56:56.369Z,9.20
2018-12-11T08:59:23.901Z,10.57
2018-12-11T09:01:51.461Z,11.53
2018-12-11T09:04:19.041Z,7.07
2018-12-11T09:06:46.594Z,7.37
2018-12-11T09:09:14.099Z,8.50
2018-12-11T09:11:41.902Z,6.73
2018-12-11T09:14:09.450Z,7.20
2018-12-11T09:16:36.967Z,5.47
2018-12-11T09:19:04.513Z,7.97
2018-12-11T09:21:32.076Z,9.03
2018-12-11T09:23:59.582Z,10.73
2018-12-11T09:26:28.287Z,5.83
2018-12-11T09:28:56.103Z,6.87
2018-12-11T09:31:23.648Z,7.83
2018-12-11T09:33:51.221Z,6.97
2018-12-11T09:36:18.757Z,6.55
2018-12-11T09:38:46.360Z,5.20
2018-12-11T09:41:13.925Z,7.43
2018-12-11T09:43:41.430Z,7.87
2018-12-11T09:46:08.930Z,7.23
2018-12-11T09:48:36.525Z,5.53
2018-12-11T09:51:04.081Z,5.23
2018-12-11T09:53:31.668Z,6.87
2018-12-11T09:55:59.181Z,8.97
2018-12-11T09:58:26.745Z,5.83
2018-12-11T10:00:54.271Z,6.13
2018-12-11T10:03:21.787Z,7.27
2018-12-11T10:05:49.317Z,7.23
2018-12-11T10:08:16.816Z,5.07
2018-12-11T10:10:44.343Z,8.50
2018-12-11T10:13:11.862Z,6.00
2018-12-11T10:15:39.500Z,6.90
2018-12-11T10:18:07.078Z,5.57
2018-12-11T10:20:34.616Z,5.03
2018-12-11T10:23:02.478Z,7.23
2018-12-11T10:25:30.163Z,6.80
2018-12-11T10:27:57.676Z,4.93
2018-12-11T10:30:27.150Z,4.70
2018-12-11T10:32:54.645Z,5.03
2018-12-11T10:35:22.306Z,6.57
2018-12-11T10:37:49.958Z,5.63
2018-12-11T10:40:17.635Z,5.27
2018-12-11T10:42:45.527Z,6.47
2018-12-11T10:45:13.096Z,5.77
2018-12-11T10:47:40.623Z,4.30
2018-12-11T10:50:08.243Z,5.40
2018-12-11T10:52:35.790Z,4.37
2018-12-11T10:55:03.363Z,5.63
2018-12-11T10:57:30.969Z,9.10
2018-12-11T10:59:58.450Z,6.20
2018-12-11T11:02:27.007Z,8.00
2018-12-11T11:04:54.645Z,5.83
2018-12-11T11:07:22.159Z,7.13
2018-12-11T11:09:49.710Z,7.70
2018-12-11T11:12:17.467Z,5.50
2018-12-11T11:14:45.002Z,7.03
2018-12-11T11:17:12.640Z,4.17
2018-12-11T11:19:40.298Z,6.30
2018-12-11T11:22:07.842Z,4.10
2018-12-11T11:24:35.378Z,4.70
2018-12-11T11:27:02.910Z,4.60
2018-12-11T11:29:30.465Z,5.70
2018-12-11T11:31:58.002Z,3.60
2018-12-11T11:34:25.519Z,5.47
2018-12-11T11:36:53.046Z,7.27
2018-12-11T11:39:20.652Z,4.00
2018-12-11T11:41:48.198Z,5.17
2018-12-11T11:44:15.718Z,4.73
2018-12-11T11:46:43.368Z,6.00
2018-12-11T11:49:10.880Z,8.70
2018-12-11T11:51:38.380Z,5.20
2018-12-11T11:54:05.978Z,4.03
2018-12-11T11:56:33.498Z,7.20
2018-12-11T11:59:01.093Z,7.43
2018-12-11T12:01:28.628Z,6.07
2018-12-11T12:03:56.134Z,4.93
2018-12-11T12:06:23.650Z,5.63
2018-12-11T12:08:51.254Z,7.20
2018-12-11T12:11:19.353Z,7.97
2018-12-11T12:13:46.914Z,4.50
2018-12-11T12:16:14.485Z,7.40
2018-12-11T12:18:42.015Z,5.13
2018-12-11T12:21:09.615Z,4.80
2018-12-11T12:23:37.170Z,6.83
2018-12-11T12:26:04.678Z,4.33
2018-12-11T12:28:32.250Z,5.73
2018-12-11T12:31:00.122Z,7.10
2018-12-11T12:33:27.609Z,8.13
2018-12-11T12:35:55.132Z,3.43
2018-12-11T12:38:22.643Z,6.67
2018-12-11T12:40:50.494Z,5.07
2018-12-11T12:43:18.039Z,6.13
2018-12-11T12:45:45.562Z,5.57
2018-12-11T12:48:13.095Z,7.37
2018-12-11T12:50:40.617Z,6.10
2018-12-11T12:53:08.137Z,4.17
2018-12-11T12:55:35.663Z,4.63
2018-12-11T12:58:03.278Z,4.33
2018-12-11T13:00:30.816Z,5.23
2018-12-11T13:02:58.300Z,4.73
2018-12-11T13:05:25.895Z,7.70
2018-12-11T13:07:53.422Z,4.83
2018-12-11T13:10:21.922Z,7.27
2018-12-11T13:12:49.642Z,6.77
2018-12-11T13:15:17.148Z,2.97
2018-12-11T13:17:44.742Z,9.23
2018-12-11T13:20:12.336Z,6.87
2018-12-11T13:22:39.872Z,5.60
2018-12-11T13:25:07.563Z,6.50
2018-12-11T13:27:35.089Z,4.17
2018-12-11T13:30:02.692Z,5.37
2018-12-11T13:32:30.244Z,5.00
2018-12-11T13:34:57.769Z,4.50
2018-12-11T13:37:25.378Z,6.07
2018-12-11T13:39:53.954Z,8.83
2018-12-11T13:42:22.437Z,7.20
2018-12-11T13:44:49.932Z,5.43
2018-12-11T13:47:17.462Z,5.07
2018-12-11T13:49:44.969Z,3.77
2018-12-11T13:52:12.482Z,8.33
2018-12-11T13:54:40.109Z,6.83
2018-12-11T13:57:07.675Z,6.43
2018-12-11T13:59:35.272Z,7.00
2018-12-11T14:02:02.826Z,5.93
2018-12-11T14:04:30.321Z,6.63
2018-12-11T14:06:57.843Z,4.83
2018-12-11T14:09:31.012Z,5.43
2018-12-11T14:11:58.563Z,4.77
2018-12-11T14:14:26.055Z,5.67
2018-12-11T14:16:54.570Z,4.10
2018-12-11T14:19:22.150Z,3.83
2018-12-11T14:21:49.735Z,6.17
2018-12-11T14:24:17.306Z,5.57
2018-12-11T14:26:44.835Z,6.20
2018-12-11T14:29:12.419Z,6.93
2018-12-11T14:31:40.001Z,7.27
2018-12-11T14:34:07.555Z,9.53
2018-12-11T14:36:35.135Z,8.70
2018-12-11T14:39:04.543Z,6.43
2018-12-11T14:41:32.067Z,6.10
2018-12-11T14:43:59.562Z,4.73
2018-12-11T14:46:27.098Z,6.33
2018-12-11T14:48:54.719Z,5.13
2018-12-11T14:51:22.207Z,6.83
2018-12-11T14:53:49.761Z,8.73
2018-12-11T14:56:17.274Z,8.20
2018-12-11T14:58:44.796Z,7.07
2018-12-11T15:01:12.352Z,6.87
2018-12-11T15:03:39.888Z,5.27
2018-12-11T15:06:07.408Z,5.27
2018-12-11T15:08:34.908Z,6.57
2018-12-11T15:11:02.533Z,4.93
2018-12-11T15:13:30.077Z,7.93
2018-12-11T15:15:57.580Z,6.10
2018-12-11T15:18:25.150Z,5.60
2018-12-11T15:20:52.723Z,5.23
2018-12-11T15:23:20.216Z,7.97
2018-12-11T15:25:47.756Z,8.90
2018-12-11T15:28:15.330Z,7.10
2018-12-11T15:30:42.897Z,5.40
2018-12-11T15:33:10.464Z,6.50
2018-12-11T15:35:38.004Z,5.53
2018-12-11T15:38:05.498Z,7.47
2018-12-11T15:40:33.066Z,5.20
2018-12-11T15:43:01.126Z,5.63
2018-12-11T15:45:28.734Z,5.10
2018-12-11T15:47:56.290Z,6.77
2018-12-11T15:50:23.849Z,7.77
2018-12-11T15:52:51.447Z,5.40
2018-12-11T15:55:19.009Z,6.83
2018-12-11T15:57:46.599Z,7.93
2018-12-11T16:00:14.178Z,7.50
2018-12-11T16:02:41.678Z,6.33
2018-12-11T16:05:09.359Z,6.53
2018-12-11T16:07:36.849Z,7.17
2018-12-11T16:10:04.937Z,4.43
2018-12-11T16:12:32.479Z,7.97
2018-12-11T16:15:00.046Z,5.20
2018-12-11T16:17:27.578Z,7.30
2018-12-11T16:19:55.104Z,4.97
2018-12-11T16:22:22.630Z,5.50
2018-12-11T16:24:50.262Z,9.50
2018-12-11T16:27:18.123Z,4.37
2018-12-11T16:29:45.642Z,8.93
2018-12-11T16:32:13.179Z,5.07
2018-12-11T16:34:40.687Z,8.33
2018-12-11T16:37:09.487Z,3.90
2018-12-11T16:39:37.033Z,6.60
2018-12-11T16:42:04.578Z,9.13
2018-12-11T16:44:32.842Z,5.70
2018-12-11T16:47:00.372Z,6.70
2018-12-11T16:49:27.893Z,6.00
2018-12-11T16:51:55.436Z,8.20
2018-12-11T16:54:22.933Z,5.93
2018-12-11T16:56:50.594Z,6.40
2018-12-11T16:59:18.233Z,6.03
2018-12-11T17:01:45.794Z,5.33
2018-12-11T17:04:13.388Z,4.73
2018-12-11T17:06:40.931Z,4.77
2018-12-11T17:09:10.426Z,5.27
2018-12-11T17:11:38.166Z,6.00
2018-12-11T17:14:06.349Z,9.37
2018-12-11T17:16:34.011Z,6.23
2018-12-11T17:19:01.559Z,6.43
2018-12-11T17:21:29.129Z,5.10
2018-12-11T17:23:56.669Z,5.17
2018-12-11T17:26:24.191Z,5.87
2018-12-11T17:28:51.745Z,4.77
2018-12-11T17:31:19.409Z,3.83
2018-12-11T17:33:46.995Z,4.40
2018-12-11T17:36:14.527Z,6.13
2018-12-11T17:38:42.053Z,3.80
2018-12-11T17:41:09.639Z,5.47
2018-12-11T17:43:37.319Z,5.47
2018-12-11T17:46:06.600Z,4.73
2018-12-11T17:48:41.414Z,4.90
2018-12-11T17:51:05.489Z,4.37
2018-12-11T17:53:33.202Z,6.37
2018-12-11T17:56:00.728Z,4.60
2018-12-11T17:58:28.326Z,5.47
2018-12-11T18:00:55.893Z,4.27
2018-12-11T18:03:23.462Z,3.77
2018-12-11T18:05:51.156Z,4.10
2018-12-11T18:08:18.670Z,4.23
2018-12-11T18:10:46.235Z,5.83
2018-12-11T18:13:13.754Z,3.43
2018-12-11T18:15:41.386Z,4.23
2018-12-11T18:18:08.956Z,4.70
2018-12-11T18:20:36.689Z,7.60
2018-12-11T18:23:04.212Z,4.43
2018-12-11T18:25:32.379Z,5.60
2018-12-11T18:27:59.920Z,4.57
2018-12-11T18:30:27.480Z,5.73
2018-12-11T18:32:55.015Z,4.43
2018-12-11T18:35:23.582Z,4.73
2018-12-11T18:37:51.177Z,4.17
2018-12-11T18:40:18.732Z,9.97
2018-12-11T18:42:46.940Z,5.17
2018-12-11T18:45:14.571Z,4.80
2018-12-11T18:47:42.370Z,6.57
2018-12-11T18:50:09.958Z,5.60
2018-12-11T18:52:37.820Z,4.70
2018-12-11T18:55:06.001Z,7.27
2018-12-11T18:57:33.540Z,4.60
2018-12-11T19:00:01.083Z,4.40
2018-12-11T19:02:30.236Z,5.13
2018-12-11T19:04:58.671Z,4.67
2018-12-11T19:07:27.660Z,5.57
2018-12-11T19:09:55.964Z,6.93
2018-12-11T19:12:23.508Z,3.63
2018-12-11T19:14:52.388Z,4.43
2018-12-11T19:17:20.748Z,5.80
2018-12-11T19:19:48.295Z,6.63
2018-12-11T19:22:15.826Z,5.40
2018-12-11T19:24:43.572Z,6.00
2018-12-11T19:27:11.765Z,6.93
2018-12-11T19:29:39.528Z,3.80
2018-12-11T19:32:07.935Z,6.97
2018-12-11T19:34:36.024Z,5.83
2018-12-11T19:37:04.210Z,5.27
2018-12-11T19:39:32.866Z,2.80
2018-12-11T19:42:01.160Z,5.43
2018-12-11T19:44:28.793Z,7.23
2018-12-11T19:46:57.274Z,3.30
2018-12-11T19:49:24.980Z,7.87
2018-12-11T19:51:52.513Z,5.33
2018-12-11T19:54:20.139Z,5.73
2018-12-11T19:56:47.669Z,4.90
2018-12-11T19:59:15.315Z,4.12
2018-12-11T20:01:42.944Z,4.97
2018-12-11T20:04:10.857Z,4.90
2018-12-11T20:06:38.394Z,5.73
2018-12-11T20:09:06.804Z,4.50
2018-12-11T20:11:34.353Z,7.20
2018-12-11T20:14:02.019Z,5.43
2018-12-11T20:16:30.314Z,5.33
2018-12-11T20:18:58.465Z,4.00
2018-12-11T20:21:26.020Z,4.07
2018-12-11T20:23:54.375Z,4.93
2018-12-11T20:26:21.908Z,5.00
2018-12-11T20:28:50.820Z,5.53
2018-12-11T20:31:18.349Z,5.63
2018-12-11T20:33:46.402Z,6.20
2018-12-11T20:36:13.990Z,4.57
2018-12-11T20:38:41.700Z,6.97
2018-12-11T20:41:09.268Z,5.00
2018-12-11T20:43:37.520Z,5.20
2018-12-11T20:46:05.056Z,6.63
2018-12-11T20:48:32.575Z,6.13
2018-12-11T20:51:00.207Z,5.27
2018-12-11T20:53:28.477Z,8.97
2018-12-11T20:55:56.025Z,6.97
2018-12-11T20:58:23.549Z,8.93
2018-12-11T21:00:51.168Z,6.50
2018-12-11T21:03:18.728Z,6.53
2018-12-11T21:05:46.272Z,5.53
2018-12-11T21:08:13.833Z,7.17
2018-12-11T21:10:42.353Z,7.23
2018-12-11T21:13:09.905Z,7.23
2018-12-11T21:15:37.615Z,6.73
2018-12-11T21:18:06.108Z,7.60
2018-12-11T21:20:34.297Z,7.23
2018-12-11T21:23:01.863Z,7.20
2018-12-11T21:25:29.417Z,5.50
2018-12-11T21:27:57.968Z,5.40
2018-12-11T21:30:26.463Z,7.37
2018-12-11T21:32:54.293Z,7.33
2018-12-11T21:35:22.844Z,5.80
2018-12-11T21:37:50.395Z,5.23
2018-12-11T21:40:17.925Z,6.03
2018-12-11T21:42:45.439Z,6.40
2018-12-11T21:45:13.061Z,6.93
2018-12-11T21:47:41.058Z,8.43
2018-12-11T21:50:08.774Z,7.20
2018-12-11T21:52:36.728Z,7.23
2018-12-11T21:55:05.244Z,7.20
2018-12-11T21:57:33.945Z,6.23
2018-12-11T22:00:02.148Z,6.20
2018-12-11T22:02:30.514Z,7.93
2018-12-11T22:04:58.167Z,6.47
2018-12-11T22:07:25.713Z,6.87
2018-12-11T22:09:54.230Z,5.53
2018-12-11T22:12:22.662Z,6.17
2018-12-11T22:14:50.190Z,6.07
2018-12-11T22:17:17.711Z,5.30
2018-12-11T22:19:45.258Z,6.43
2018-12-11T22:22:12.772Z,5.10
2018-12-11T22:24:40.353Z,5.47
2018-12-11T22:27:07.870Z,5.77
2018-12-11T22:29:35.460Z,6.40
2018-12-11T22:32:03.009Z,6.53
2018-12-11T22:34:30.545Z,7.73
2018-12-11T22:36:58.112Z,8.13
2018-12-11T22:39:25.640Z,8.17
2018-12-11T22:41:53.134Z,8.60
2018-12-11T22:44:20.668Z,7.72
2018-12-11T22:46:48.181Z,8.37
2018-12-11T22:49:15.702Z,9.43
2018-12-11T22:51:43.553Z,8.23
2018-12-11T22:54:11.311Z,7.73
2018-12-11T22:56:38.825Z,6.97
2018-12-11T22:59:06.336Z,7.50
2018-12-11T23:01:33.901Z,7.63
2018-12-11T23:04:01.509Z,7.60
2018-12-11T23:06:30.067Z,9.93
2018-12-11T23:08:57.601Z,9.00
2018-12-11T23:11:25.178Z,8.43
2018-12-11T23:13:52.727Z,7.67
2018-12-11T23:16:20.808Z,6.40
2018-12-11T23:18:48.309Z,7.43
2018-12-11T23:21:15.839Z,6.53
2018-12-11T23:23:43.422Z,7.30
2018-12-11T23:26:10.951Z,8.87
2018-12-11T23:28:38.452Z,8.67
2018-12-11T23:31:06.073Z,11.50
2018-12-11T23:33:33.726Z,10.77
2018-12-11T23:36:01.284Z,9.63
2018-12-11T23:38:28.774Z,9.90
2018-12-11T23:40:56.518Z,9.63
2018-12-11T23:43:24.008Z,7.87
2018-12-11T23:45:51.522Z,8.00
2018-12-11T23:48:19.017Z,8.47
2018-12-11T23:50:46.509Z,8.23
2018-12-11T23:53:14.058Z,9.97
2018-12-11T23:55:41.623Z,9.30
2018-12-11T23:58:09.134Z,8.33
